sensor_id;sensor_type;location;lat;lon;timestamp;P1;durP1;ratioP1;P2;durP2;ratioP2
49592;SDS011;35499;51.482;4.264;2023-05-02T00:00:25;36.05;;;12.32;;
49592;SDS011;35499;51.482;4.264;2023-05-02T00:02:52;34.35;;;13.15;;
49592;SDS011;35499;51.482;4.264;2023-05-02T00:05:17;34.57;;;12.73;;
49592;SDS011;35499;51.482;4.264;2023-05-02T00:07:42;33.63;;;12.55;;
49592;SDS011;35499;51.482;4.264;2023-05-02T00:10:08;34.43;;;12.03;;
49592;SDS011;35499;51.482;4.264;2023-05-02T00:12:33;35.13;;;13.63;;
49592;SDS011;35499;51.482;4.264;2023-05-02T00:14:59;34.90;;;13.80;;
49592;SDS011;35499;51.482;4.264;2023-05-02T00:17:25;34.28;;;14.05;;
49592;SDS011;35499;51.482;4.264;2023-05-02T00:19:50;40.85;;;15.63;;
49592;SDS011;35499;51.482;4.264;2023-05-02T00:22:15;35.77;;;15.23;;
49592;SDS011;35499;51.482;4.264;2023-05-02T00:24:40;29.37;;;14.23;;
49592;SDS011;35499;51.482;4.264;2023-05-02T00:27:06;33.23;;;12.43;;
49592;SDS011;35499;51.482;4.264;2023-05-02T00:29:31;31.02;;;13.68;;
49592;SDS011;35499;51.482;4.264;2023-05-02T00:31:57;30.43;;;12.93;;
49592;SDS011;35499;51.482;4.264;2023-05-02T00:34:22;33.80;;;13.00;;
49592;SDS011;35499;51.482;4.264;2023-05-02T00:36:52;31.02;;;13.35;;
49592;SDS011;35499;51.482;4.264;2023-05-02T00:39:18;23.47;;;11.13;;
49592;SDS011;35499;51.482;4.264;2023-05-02T00:41:43;26.90;;;10.67;;
49592;SDS011;35499;51.482;4.264;2023-05-02T00:44:08;29.87;;;9.53;;
49592;SDS011;35499;51.482;4.264;2023-05-02T00:46:33;24.03;;;10.60;;
49592;SDS011;35499;51.482;4.264;2023-05-02T00:49:00;27.70;;;11.20;;
49592;SDS011;35499;51.482;4.264;2023-05-02T00:51:25;26.00;;;10.43;;
49592;SDS011;35499;51.482;4.264;2023-05-02T00:53:51;25.20;;;8.63;;
49592;SDS011;35499;51.482;4.264;2023-05-02T00:56:16;21.05;;;8.60;;
49592;SDS011;35499;51.482;4.264;2023-05-02T00:58:42;22.20;;;9.57;;
49592;SDS011;35499;51.482;4.264;2023-05-02T01:10:18;21.20;;;8.50;;
49592;SDS011;35499;51.482;4.264;2023-05-02T01:15:20;20.85;;;8.73;;
49592;SDS011;35499;51.482;4.264;2023-05-02T01:17:47;19.20;;;7.63;;
49592;SDS011;35499;51.482;4.264;2023-05-02T01:20:14;19.80;;;8.45;;
49592;SDS011;35499;51.482;4.264;2023-05-02T01:22:44;20.98;;;8.25;;
49592;SDS011;35499;51.482;4.264;2023-05-02T01:27:55;24.77;;;9.50;;
49592;SDS011;35499;51.482;4.264;2023-05-02T01:30:28;21.15;;;9.02;;
49592;SDS011;35499;51.482;4.264;2023-05-02T01:32:57;24.25;;;10.25;;
49592;SDS011;35499;51.482;4.264;2023-05-02T01:35:25;25.05;;;10.15;;
49592;SDS011;35499;51.482;4.264;2023-05-02T01:37:51;24.20;;;9.95;;
49592;SDS011;35499;51.482;4.264;2023-05-02T01:40:19;27.58;;;10.27;;
49592;SDS011;35499;51.482;4.264;2023-05-02T01:45:15;26.75;;;10.07;;
49592;SDS011;35499;51.482;4.264;2023-05-02T01:47:43;26.00;;;9.57;;
49592;SDS011;35499;51.482;4.264;2023-05-02T01:50:13;27.77;;;10.95;;
49592;SDS011;35499;51.482;4.264;2023-05-02T01:52:41;22.65;;;9.05;;
49592;SDS011;35499;51.482;4.264;2023-05-02T01:55:10;25.55;;;9.88;;
49592;SDS011;35499;51.482;4.264;2023-05-02T01:57:38;25.38;;;9.40;;
49592;SDS011;35499;51.482;4.264;2023-05-02T02:00:05;24.42;;;10.25;;
49592;SDS011;35499;51.482;4.264;2023-05-02T02:02:33;26.42;;;10.77;;
49592;SDS011;35499;51.482;4.264;2023-05-02T02:05:00;28.42;;;10.57;;
49592;SDS011;35499;51.482;4.264;2023-05-02T02:07:28;26.35;;;11.18;;
49592;SDS011;35499;51.482;4.264;2023-05-02T02:09:54;29.52;;;12.35;;
49592;SDS011;35499;51.482;4.264;2023-05-02T02:12:22;27.03;;;10.40;;
49592;SDS011;35499;51.482;4.264;2023-05-02T02:15:02;26.25;;;10.45;;
49592;SDS011;35499;51.482;4.264;2023-05-02T02:17:39;20.38;;;8.77;;
49592;SDS011;35499;51.482;4.264;2023-05-02T02:20:08;17.35;;;8.00;;
49592;SDS011;35499;51.482;4.264;2023-05-02T02:22:38;18.23;;;6.55;;
49592;SDS011;35499;51.482;4.264;2023-05-02T02:25:05;14.27;;;6.57;;
49592;SDS011;35499;51.482;4.264;2023-05-02T02:27:34;13.52;;;5.93;;
49592;SDS011;35499;51.482;4.264;2023-05-02T02:30:01;10.77;;;5.88;;
49592;SDS011;35499;51.482;4.264;2023-05-02T02:32:26;10.93;;;4.68;;
49592;SDS011;35499;51.482;4.264;2023-05-02T02:34:51;10.10;;;4.63;;
49592;SDS011;35499;51.482;4.264;2023-05-02T02:37:17;10.80;;;5.53;;
49592;SDS011;35499;51.482;4.264;2023-05-02T02:42:20;12.07;;;6.05;;
49592;SDS011;35499;51.482;4.264;2023-05-02T02:47:57;14.35;;;6.05;;
49592;SDS011;35499;51.482;4.264;2023-05-02T02:53:43;14.63;;;6.15;;
49592;SDS011;35499;51.482;4.264;2023-05-02T02:56:19;13.77;;;6.10;;
49592;SDS011;35499;51.482;4.264;2023-05-02T03:01:21;13.13;;;6.00;;
49592;SDS011;35499;51.482;4.264;2023-05-02T03:03:49;13.63;;;6.72;;
49592;SDS011;35499;51.482;4.264;2023-05-02T03:06:18;16.98;;;7.40;;
49592;SDS011;35499;51.482;4.264;2023-05-02T03:08:44;13.10;;;6.05;;
49592;SDS011;35499;51.482;4.264;2023-05-02T03:11:10;14.55;;;5.63;;
49592;SDS011;35499;51.482;4.264;2023-05-02T03:13:35;11.93;;;6.03;;
49592;SDS011;35499;51.482;4.264;2023-05-02T03:18:59;15.38;;;4.90;;
49592;SDS011;35499;51.482;4.264;2023-05-02T03:21:24;13.05;;;5.93;;
49592;SDS011;35499;51.482;4.264;2023-05-02T03:23:49;13.40;;;5.60;;
49592;SDS011;35499;51.482;4.264;2023-05-02T03:26:15;12.38;;;5.65;;
49592;SDS011;35499;51.482;4.264;2023-05-02T03:28:41;10.18;;;5.22;;
49592;SDS011;35499;51.482;4.264;2023-05-02T03:31:06;11.80;;;5.83;;
49592;SDS011;35499;51.482;4.264;2023-05-02T03:33:32;12.77;;;5.30;;
49592;SDS011;35499;51.482;4.264;2023-05-02T03:35:57;11.20;;;4.38;;
49592;SDS011;35499;51.482;4.264;2023-05-02T03:38:23;13.15;;;5.25;;
49592;SDS011;35499;51.482;4.264;2023-05-02T03:40:48;9.23;;;4.20;;
49592;SDS011;35499;51.482;4.264;2023-05-02T03:43:13;9.63;;;4.20;;
49592;SDS011;35499;51.482;4.264;2023-05-02T03:45:38;9.73;;;4.07;;
49592;SDS011;35499;51.482;4.264;2023-05-02T03:48:04;13.43;;;3.83;;
49592;SDS011;35499;51.482;4.264;2023-05-02T03:50:30;11.85;;;3.67;;
49592;SDS011;35499;51.482;4.264;2023-05-02T03:52:56;8.75;;;4.55;;
49592;SDS011;35499;51.482;4.264;2023-05-02T03:55:21;18.35;;;5.75;;
49592;SDS011;35499;51.482;4.264;2023-05-02T03:57:47;10.40;;;4.43;;
49592;SDS011;35499;51.482;4.264;2023-05-02T04:00:12;12.50;;;4.50;;
49592;SDS011;35499;51.482;4.264;2023-05-02T04:02:38;11.95;;;3.60;;
49592;SDS011;35499;51.482;4.264;2023-05-02T04:05:03;9.03;;;4.27;;
49592;SDS011;35499;51.482;4.264;2023-05-02T04:07:29;7.70;;;3.17;;
49592;SDS011;35499;51.482;4.264;2023-05-02T04:09:54;10.03;;;3.23;;
49592;SDS011;35499;51.482;4.264;2023-05-02T04:12:19;13.87;;;4.57;;
49592;SDS011;35499;51.482;4.264;2023-05-02T04:14:45;10.30;;;3.90;;
49592;SDS011;35499;51.482;4.264;2023-05-02T04:17:10;8.40;;;3.60;;
49592;SDS011;35499;51.482;4.264;2023-05-02T04:19:35;11.03;;;3.73;;
49592;SDS011;35499;51.482;4.264;2023-05-02T04:22:01;9.30;;;3.13;;
49592;SDS011;35499;51.482;4.264;2023-05-02T04:24:27;12.02;;;3.22;;
49592;SDS011;35499;51.482;4.264;2023-05-02T04:26:53;7.93;;;2.80;;
49592;SDS011;35499;51.482;4.264;2023-05-02T04:29:18;9.80;;;3.70;;
49592;SDS011;35499;51.482;4.264;2023-05-02T04:31:43;10.98;;;3.60;;
49592;SDS011;35499;51.482;4.264;2023-05-02T04:34:09;6.95;;;2.75;;
49592;SDS011;35499;51.482;4.264;2023-05-02T04:36:34;6.17;;;2.60;;
49592;SDS011;35499;51.482;4.264;2023-05-02T04:39:00;12.05;;;3.10;;
49592;SDS011;35499;51.482;4.264;2023-05-02T04:41:25;7.87;;;2.40;;
49592;SDS011;35499;51.482;4.264;2023-05-02T04:43:51;4.85;;;2.22;;
49592;SDS011;35499;51.482;4.264;2023-05-02T04:46:17;9.48;;;2.47;;
49592;SDS011;35499;51.482;4.264;2023-05-02T04:48:42;7.47;;;2.53;;
49592;SDS011;35499;51.482;4.264;2023-05-02T04:51:08;5.22;;;2.55;;
49592;SDS011;35499;51.482;4.264;2023-05-02T04:53:34;7.32;;;2.38;;
49592;SDS011;35499;51.482;4.264;2023-05-02T04:55:59;6.78;;;2.35;;
49592;SDS011;35499;51.482;4.264;2023-05-02T04:58:25;6.82;;;1.77;;
49592;SDS011;35499;51.482;4.264;2023-05-02T05:00:50;7.93;;;1.33;;
49592;SDS011;35499;51.482;4.264;2023-05-02T05:03:15;7.77;;;1.73;;
49592;SDS011;35499;51.482;4.264;2023-05-02T05:05:41;4.97;;;1.52;;
49592;SDS011;35499;51.482;4.264;2023-05-02T05:08:06;6.33;;;1.93;;
49592;SDS011;35499;51.482;4.264;2023-05-02T05:10:32;5.05;;;1.67;;
49592;SDS011;35499;51.482;4.264;2023-05-02T05:12:57;5.57;;;1.97;;
49592;SDS011;35499;51.482;4.264;2023-05-02T05:15:22;3.37;;;1.17;;
49592;SDS011;35499;51.482;4.264;2023-05-02T05:17:49;8.55;;;1.92;;
49592;SDS011;35499;51.482;4.264;2023-05-02T05:20:15;4.57;;;1.45;;
49592;SDS011;35499;51.482;4.264;2023-05-02T05:22:40;3.80;;;1.52;;
49592;SDS011;35499;51.482;4.264;2023-05-02T05:25:09;4.38;;;1.50;;
49592;SDS011;35499;51.482;4.264;2023-05-02T05:27:35;6.68;;;1.77;;
49592;SDS011;35499;51.482;4.264;2023-05-02T05:30:01;6.55;;;1.63;;
49592;SDS011;35499;51.482;4.264;2023-05-02T05:32:31;4.15;;;0.90;;
49592;SDS011;35499;51.482;4.264;2023-05-02T05:34:57;5.30;;;1.70;;
49592;SDS011;35499;51.482;4.264;2023-05-02T05:37:22;5.85;;;1.70;;
49592;SDS011;35499;51.482;4.264;2023-05-02T05:39:48;4.03;;;1.13;;
49592;SDS011;35499;51.482;4.264;2023-05-02T05:42:13;4.57;;;1.50;;
49592;SDS011;35499;51.482;4.264;2023-05-02T05:44:38;7.13;;;1.47;;
49592;SDS011;35499;51.482;4.264;2023-05-02T05:47:04;5.15;;;1.27;;
49592;SDS011;35499;51.482;4.264;2023-05-02T05:49:29;8.52;;;1.65;;
49592;SDS011;35499;51.482;4.264;2023-05-02T05:51:55;6.45;;;1.73;;
49592;SDS011;35499;51.482;4.264;2023-05-02T05:54:20;4.30;;;1.15;;
49592;SDS011;35499;51.482;4.264;2023-05-02T05:56:46;5.43;;;1.52;;
49592;SDS011;35499;51.482;4.264;2023-05-02T05:59:11;9.85;;;1.58;;
49592;SDS011;35499;51.482;4.264;2023-05-02T06:01:37;5.93;;;1.42;;
49592;SDS011;35499;51.482;4.264;2023-05-02T06:04:02;3.90;;;1.17;;
49592;SDS011;35499;51.482;4.264;2023-05-02T06:06:29;6.30;;;1.38;;
49592;SDS011;35499;51.482;4.264;2023-05-02T06:08:55;8.40;;;1.38;;
49592;SDS011;35499;51.482;4.264;2023-05-02T06:11:21;4.30;;;1.05;;
49592;SDS011;35499;51.482;4.264;2023-05-02T06:13:48;6.50;;;1.35;;
49592;SDS011;35499;51.482;4.264;2023-05-02T06:16:13;5.72;;;0.85;;
49592;SDS011;35499;51.482;4.264;2023-05-02T06:18:39;6.53;;;1.30;;
49592;SDS011;35499;51.482;4.264;2023-05-02T06:21:04;3.70;;;1.50;;
49592;SDS011;35499;51.482;4.264;2023-05-02T06:23:30;4.53;;;1.35;;
49592;SDS011;35499;51.482;4.264;2023-05-02T06:26:00;6.40;;;0.98;;
49592;SDS011;35499;51.482;4.264;2023-05-02T06:28:26;3.38;;;0.90;;
49592;SDS011;35499;51.482;4.264;2023-05-02T06:30:58;7.28;;;1.30;;
49592;SDS011;35499;51.482;4.264;2023-05-02T06:33:25;3.35;;;0.90;;
49592;SDS011;35499;51.482;4.264;2023-05-02T06:35:51;2.95;;;1.08;;
49592;SDS011;35499;51.482;4.264;2023-05-02T06:38:20;6.30;;;1.15;;
49592;SDS011;35499;51.482;4.264;2023-05-02T06:40:45;9.40;;;1.00;;
49592;SDS011;35499;51.482;4.264;2023-05-02T06:43:11;8.35;;;1.67;;
49592;SDS011;35499;51.482;4.264;2023-05-02T06:45:37;6.30;;;1.15;;
49592;SDS011;35499;51.482;4.264;2023-05-02T06:48:03;3.95;;;0.90;;
49592;SDS011;35499;51.482;4.264;2023-05-02T06:50:29;6.25;;;1.17;;
49592;SDS011;35499;51.482;4.264;2023-05-02T06:52:54;4.13;;;1.10;;
49592;SDS011;35499;51.482;4.264;2023-05-02T06:55:19;6.53;;;1.35;;
49592;SDS011;35499;51.482;4.264;2023-05-02T06:57:45;7.50;;;1.25;;
49592;SDS011;35499;51.482;4.264;2023-05-02T07:00:11;6.22;;;1.13;;
49592;SDS011;35499;51.482;4.264;2023-05-02T07:02:37;6.43;;;1.20;;
49592;SDS011;35499;51.482;4.264;2023-05-02T07:05:02;7.82;;;1.35;;
49592;SDS011;35499;51.482;4.264;2023-05-02T07:07:28;7.38;;;1.67;;
49592;SDS011;35499;51.482;4.264;2023-05-02T07:09:53;7.32;;;1.58;;
49592;SDS011;35499;51.482;4.264;2023-05-02T07:12:19;4.40;;;1.53;;
49592;SDS011;35499;51.482;4.264;2023-05-02T07:14:45;10.75;;;2.22;;
49592;SDS011;35499;51.482;4.264;2023-05-02T07:17:10;6.65;;;1.52;;
49592;SDS011;35499;51.482;4.264;2023-05-02T07:19:36;9.05;;;2.15;;
49592;SDS011;35499;51.482;4.264;2023-05-02T07:22:01;8.10;;;1.57;;
49592;SDS011;35499;51.482;4.264;2023-05-02T07:24:27;8.90;;;1.83;;
49592;SDS011;35499;51.482;4.264;2023-05-02T07:26:52;8.07;;;2.05;;
49592;SDS011;35499;51.482;4.264;2023-05-02T07:29:18;10.33;;;1.80;;
49592;SDS011;35499;51.482;4.264;2023-05-02T07:31:43;10.30;;;2.10;;
49592;SDS011;35499;51.482;4.264;2023-05-02T07:34:08;9.00;;;2.00;;
49592;SDS011;35499;51.482;4.264;2023-05-02T07:36:33;6.93;;;1.53;;
49592;SDS011;35499;51.482;4.264;2023-05-02T07:38:58;6.33;;;1.67;;
49592;SDS011;35499;51.482;4.264;2023-05-02T07:41:24;6.88;;;2.65;;
49592;SDS011;35499;51.482;4.264;2023-05-02T07:43:49;8.20;;;1.60;;
49592;SDS011;35499;51.482;4.264;2023-05-02T07:46:15;7.30;;;1.77;;
49592;SDS011;35499;51.482;4.264;2023-05-02T07:48:40;7.37;;;1.70;;
49592;SDS011;35499;51.482;4.264;2023-05-02T07:51:07;8.15;;;1.92;;
49592;SDS011;35499;51.482;4.264;2023-05-02T07:53:33;8.15;;;1.80;;
49592;SDS011;35499;51.482;4.264;2023-05-02T07:55:59;8.32;;;2.20;;
49592;SDS011;35499;51.482;4.264;2023-05-02T07:58:24;6.63;;;1.88;;
49592;SDS011;35499;51.482;4.264;2023-05-02T08:00:50;7.27;;;2.00;;
49592;SDS011;35499;51.482;4.264;2023-05-02T08:03:15;7.63;;;2.40;;
49592;SDS011;35499;51.482;4.264;2023-05-02T08:05:40;6.15;;;2.00;;
49592;SDS011;35499;51.482;4.264;2023-05-02T08:08:05;5.50;;;1.73;;
49592;SDS011;35499;51.482;4.264;2023-05-02T08:10:31;8.18;;;1.95;;
49592;SDS011;35499;51.482;4.264;2023-05-02T08:12:56;3.30;;;1.13;;
49592;SDS011;35499;51.482;4.264;2023-05-02T08:15:22;8.03;;;2.23;;
49592;SDS011;35499;51.482;4.264;2023-05-02T08:17:47;8.93;;;2.28;;
49592;SDS011;35499;51.482;4.264;2023-05-02T08:20:12;7.57;;;2.63;;
49592;SDS011;35499;51.482;4.264;2023-05-02T08:22:37;6.23;;;1.77;;
49592;SDS011;35499;51.482;4.264;2023-05-02T08:25:03;6.73;;;1.80;;
49592;SDS011;35499;51.482;4.264;2023-05-02T08:27:28;8.52;;;2.40;;
49592;SDS011;35499;51.482;4.264;2023-05-02T08:29:54;5.80;;;2.80;;
49592;SDS011;35499;51.482;4.264;2023-05-02T08:32:19;9.57;;;2.20;;
49592;SDS011;35499;51.482;4.264;2023-05-02T08:34:44;7.78;;;1.23;;
49592;SDS011;35499;51.482;4.264;2023-05-02T08:37:10;4.00;;;1.60;;
49592;SDS011;35499;51.482;4.264;2023-05-02T08:39:36;7.93;;;0.98;;
49592;SDS011;35499;51.482;4.264;2023-05-02T08:42:04;5.13;;;1.55;;
49592;SDS011;35499;51.482;4.264;2023-05-02T08:44:31;3.03;;;1.17;;
49592;SDS011;35499;51.482;4.264;2023-05-02T08:46:56;4.82;;;1.17;;
49592;SDS011;35499;51.482;4.264;2023-05-02T08:49:23;11.38;;;1.80;;
49592;SDS011;35499;51.482;4.264;2023-05-02T08:51:51;4.95;;;1.13;;
49592;SDS011;35499;51.482;4.264;2023-05-02T08:54:19;6.47;;;1.40;;
49592;SDS011;35499;51.482;4.264;2023-05-02T08:56:45;2.88;;;0.90;;
49592;SDS011;35499;51.482;4.264;2023-05-02T08:59:10;2.70;;;1.10;;
49592;SDS011;35499;51.482;4.264;2023-05-02T09:04:33;6.13;;;1.52;;
49592;SDS011;35499;51.482;4.264;2023-05-02T09:07:05;8.90;;;1.60;;
49592;SDS011;35499;51.482;4.264;2023-05-02T09:09:30;3.20;;;1.15;;
49592;SDS011;35499;51.482;4.264;2023-05-02T09:11:58;3.97;;;1.05;;
49592;SDS011;35499;51.482;4.264;2023-05-02T09:14:23;4.33;;;1.33;;
49592;SDS011;35499;51.482;4.264;2023-05-02T09:16:48;3.57;;;1.17;;
49592;SDS011;35499;51.482;4.264;2023-05-02T09:19:22;4.43;;;1.52;;
49592;SDS011;35499;51.482;4.264;2023-05-02T09:21:49;4.47;;;1.30;;
49592;SDS011;35499;51.482;4.264;2023-05-02T09:24:18;5.22;;;1.38;;
49592;SDS011;35499;51.482;4.264;2023-05-02T09:26:58;5.07;;;1.35;;
49592;SDS011;35499;51.482;4.264;2023-05-02T09:29:27;3.42;;;1.08;;
49592;SDS011;35499;51.482;4.264;2023-05-02T09:32:00;7.15;;;1.33;;
49592;SDS011;35499;51.482;4.264;2023-05-02T09:34:26;4.07;;;1.30;;
49592;SDS011;35499;51.482;4.264;2023-05-02T09:36:51;5.70;;;1.50;;
49592;SDS011;35499;51.482;4.264;2023-05-02T09:39:20;3.50;;;0.95;;
49592;SDS011;35499;51.482;4.264;2023-05-02T09:41:46;5.45;;;1.77;;
49592;SDS011;35499;51.482;4.264;2023-05-02T09:44:16;4.35;;;1.42;;
49592;SDS011;35499;51.482;4.264;2023-05-02T09:46:43;6.32;;;1.42;;
49592;SDS011;35499;51.482;4.264;2023-05-02T09:49:10;5.10;;;1.60;;
49592;SDS011;35499;51.482;4.264;2023-05-02T09:51:36;3.60;;;1.30;;
49592;SDS011;35499;51.482;4.264;2023-05-02T09:54:02;3.40;;;1.02;;
49592;SDS011;35499;51.482;4.264;2023-05-02T09:56:27;4.28;;;1.10;;
49592;SDS011;35499;51.482;4.264;2023-05-02T10:01:38;4.82;;;1.40;;
49592;SDS011;35499;51.482;4.264;2023-05-02T10:04:06;7.85;;;1.92;;
49592;SDS011;35499;51.482;4.264;2023-05-02T10:06:36;3.58;;;1.70;;
49592;SDS011;35499;51.482;4.264;2023-05-02T10:09:01;5.32;;;1.50;;
49592;SDS011;35499;51.482;4.264;2023-05-02T10:11:27;7.72;;;2.08;;
49592;SDS011;35499;51.482;4.264;2023-05-02T10:13:53;5.97;;;1.33;;
49592;SDS011;35499;51.482;4.264;2023-05-02T10:16:20;6.72;;;1.58;;
49592;SDS011;35499;51.482;4.264;2023-05-02T10:21:24;7.75;;;1.30;;
49592;SDS011;35499;51.482;4.264;2023-05-02T10:23:53;6.70;;;1.83;;
49592;SDS011;35499;51.482;4.264;2023-05-02T10:26:20;5.35;;;1.30;;
49592;SDS011;35499;51.482;4.264;2023-05-02T10:28:47;6.15;;;1.65;;
49592;SDS011;35499;51.482;4.264;2023-05-02T10:33:39;8.20;;;1.58;;
49592;SDS011;35499;51.482;4.264;2023-05-02T10:36:06;4.43;;;2.05;;
49592;SDS011;35499;51.482;4.264;2023-05-02T10:38:32;4.35;;;1.33;;
49592;SDS011;35499;51.482;4.264;2023-05-02T10:41:00;5.32;;;1.38;;
49592;SDS011;35499;51.482;4.264;2023-05-02T10:43:31;5.93;;;1.33;;
49592;SDS011;35499;51.482;4.264;2023-05-02T10:45:59;5.88;;;1.30;;
49592;SDS011;35499;51.482;4.264;2023-05-02T10:48:26;6.55;;;1.58;;
49592;SDS011;35499;51.482;4.264;2023-05-02T10:50:55;5.15;;;1.83;;
49592;SDS011;35499;51.482;4.264;2023-05-02T10:53:25;4.60;;;1.75;;
49592;SDS011;35499;51.482;4.264;2023-05-02T10:58:46;4.18;;;1.45;;
49592;SDS011;35499;51.482;4.264;2023-05-02T11:06:30;4.72;;;1.30;;
49592;SDS011;35499;51.482;4.264;2023-05-02T11:09:40;3.97;;;1.25;;
49592;SDS011;35499;51.482;4.264;2023-05-02T11:11:47;4.70;;;1.73;;
49592;SDS011;35499;51.482;4.264;2023-05-02T11:19:25;5.05;;;1.15;;
49592;SDS011;35499;51.482;4.264;2023-05-02T11:22:29;4.63;;;1.10;;
49592;SDS011;35499;51.482;4.264;2023-05-02T11:24:55;4.45;;;1.20;;
49592;SDS011;35499;51.482;4.264;2023-05-02T11:29:58;3.00;;;1.17;;
49592;SDS011;35499;51.482;4.264;2023-05-02T11:35:21;3.55;;;1.02;;
49592;SDS011;35499;51.482;4.264;2023-05-02T11:37:54;3.05;;;1.02;;
49592;SDS011;35499;51.482;4.264;2023-05-02T11:40:27;5.07;;;1.05;;
49592;SDS011;35499;51.482;4.264;2023-05-02T11:42:54;4.03;;;1.25;;
49592;SDS011;35499;51.482;4.264;2023-05-02T11:45:20;3.92;;;1.08;;
49592;SDS011;35499;51.482;4.264;2023-05-02T11:47:47;4.47;;;1.00;;
49592;SDS011;35499;51.482;4.264;2023-05-02T11:50:14;4.60;;;1.33;;
49592;SDS011;35499;51.482;4.264;2023-05-02T11:52:42;5.05;;;1.13;;
49592;SDS011;35499;51.482;4.264;2023-05-02T11:55:11;3.30;;;0.98;;
49592;SDS011;35499;51.482;4.264;2023-05-02T11:57:39;4.93;;;1.23;;
49592;SDS011;35499;51.482;4.264;2023-05-02T12:00:04;4.25;;;0.93;;
49592;SDS011;35499;51.482;4.264;2023-05-02T12:02:39;3.72;;;1.00;;
49592;SDS011;35499;51.482;4.264;2023-05-02T12:05:06;3.95;;;1.27;;
49592;SDS011;35499;51.482;4.264;2023-05-02T12:07:34;3.45;;;1.17;;
49592;SDS011;35499;51.482;4.264;2023-05-02T12:10:02;8.07;;;1.70;;
49592;SDS011;35499;51.482;4.264;2023-05-02T12:12:29;2.97;;;1.30;;
49592;SDS011;35499;51.482;4.264;2023-05-02T12:14:55;5.75;;;1.33;;
49592;SDS011;35499;51.482;4.264;2023-05-02T12:17:20;4.40;;;1.00;;
49592;SDS011;35499;51.482;4.264;2023-05-02T12:19:46;3.50;;;1.20;;
49592;SDS011;35499;51.482;4.264;2023-05-02T12:22:12;3.75;;;1.23;;
49592;SDS011;35499;51.482;4.264;2023-05-02T12:24:39;4.85;;;1.25;;
49592;SDS011;35499;51.482;4.264;2023-05-02T12:27:14;3.50;;;1.67;;
49592;SDS011;35499;51.482;4.264;2023-05-02T12:29:41;2.83;;;0.85;;
49592;SDS011;35499;51.482;4.264;2023-05-02T12:32:11;2.75;;;0.90;;
49592;SDS011;35499;51.482;4.264;2023-05-02T12:34:37;3.72;;;1.45;;
49592;SDS011;35499;51.482;4.264;2023-05-02T12:37:03;3.35;;;0.82;;
49592;SDS011;35499;51.482;4.264;2023-05-02T12:42:07;6.03;;;1.70;;
49592;SDS011;35499;51.482;4.264;2023-05-02T12:44:39;5.75;;;1.65;;
49592;SDS011;35499;51.482;4.264;2023-05-02T12:47:05;3.40;;;1.50;;
49592;SDS011;35499;51.482;4.264;2023-05-02T12:51:58;4.30;;;1.50;;
49592;SDS011;35499;51.482;4.264;2023-05-02T12:54:23;4.40;;;1.98;;
49592;SDS011;35499;51.482;4.264;2023-05-02T12:56:50;5.97;;;1.48;;
49592;SDS011;35499;51.482;4.264;2023-05-02T12:59:29;5.32;;;1.63;;
49592;SDS011;35499;51.482;4.264;2023-05-02T13:01:56;4.10;;;1.38;;
49592;SDS011;35499;51.482;4.264;2023-05-02T13:04:32;4.50;;;1.73;;
49592;SDS011;35499;51.482;4.264;2023-05-02T13:06:58;4.88;;;2.10;;
49592;SDS011;35499;51.482;4.264;2023-05-02T13:09:23;2.67;;;1.37;;
49592;SDS011;35499;51.482;4.264;2023-05-02T13:11:49;3.17;;;1.63;;
49592;SDS011;35499;51.482;4.264;2023-05-02T13:14:15;5.25;;;1.70;;
49592;SDS011;35499;51.482;4.264;2023-05-02T13:16:40;5.77;;;2.00;;
49592;SDS011;35499;51.482;4.264;2023-05-02T13:19:05;5.27;;;2.10;;
49592;SDS011;35499;51.482;4.264;2023-05-02T13:21:31;4.95;;;2.10;;
49592;SDS011;35499;51.482;4.264;2023-05-02T13:23:56;5.53;;;1.60;;
49592;SDS011;35499;51.482;4.264;2023-05-02T13:28:47;4.90;;;1.90;;
49592;SDS011;35499;51.482;4.264;2023-05-02T13:31:13;5.03;;;2.23;;
49592;SDS011;35499;51.482;4.264;2023-05-02T13:33:38;5.43;;;1.80;;
49592;SDS011;35499;51.482;4.264;2023-05-02T13:36:03;5.97;;;1.93;;
49592;SDS011;35499;51.482;4.264;2023-05-02T13:38:29;8.95;;;2.15;;
49592;SDS011;35499;51.482;4.264;2023-05-02T13:40:54;5.53;;;1.70;;
49592;SDS011;35499;51.482;4.264;2023-05-02T13:43:20;5.37;;;2.17;;
49592;SDS011;35499;51.482;4.264;2023-05-02T13:45:45;6.80;;;2.30;;
49592;SDS011;35499;51.482;4.264;2023-05-02T13:48:12;6.13;;;2.20;;
49592;SDS011;35499;51.482;4.264;2023-05-02T13:50:39;4.57;;;2.05;;
49592;SDS011;35499;51.482;4.264;2023-05-02T13:53:04;6.13;;;2.03;;
49592;SDS011;35499;51.482;4.264;2023-05-02T13:55:30;5.90;;;1.90;;
49592;SDS011;35499;51.482;4.264;2023-05-02T13:57:55;7.15;;;2.25;;
49592;SDS011;35499;51.482;4.264;2023-05-02T14:00:20;5.97;;;2.00;;
49592;SDS011;35499;51.482;4.264;2023-05-02T14:02:46;7.00;;;2.33;;
49592;SDS011;35499;51.482;4.264;2023-05-02T14:05:12;4.53;;;2.35;;
49592;SDS011;35499;51.482;4.264;2023-05-02T14:07:38;5.70;;;2.20;;
49592;SDS011;35499;51.482;4.264;2023-05-02T14:10:03;7.57;;;2.10;;
49592;SDS011;35499;51.482;4.264;2023-05-02T14:12:29;5.47;;;2.20;;
49592;SDS011;35499;51.482;4.264;2023-05-02T14:14:56;6.35;;;2.05;;
49592;SDS011;35499;51.482;4.264;2023-05-02T14:19:49;5.28;;;2.25;;
49592;SDS011;35499;51.482;4.264;2023-05-02T14:22:15;6.78;;;2.42;;
49592;SDS011;35499;51.482;4.264;2023-05-02T14:24:40;5.10;;;1.80;;
49592;SDS011;35499;51.482;4.264;2023-05-02T14:27:06;7.77;;;2.80;;
49592;SDS011;35499;51.482;4.264;2023-05-02T14:29:34;7.30;;;2.00;;
49592;SDS011;35499;51.482;4.264;2023-05-02T14:31:59;3.80;;;1.95;;
49592;SDS011;35499;51.482;4.264;2023-05-02T14:34:24;6.93;;;2.20;;
49592;SDS011;35499;51.482;4.264;2023-05-02T14:36:51;4.32;;;1.70;;
49592;SDS011;35499;51.482;4.264;2023-05-02T14:39:16;6.55;;;2.40;;
49592;SDS011;35499;51.482;4.264;2023-05-02T14:41:41;6.87;;;1.80;;
49592;SDS011;35499;51.482;4.264;2023-05-02T14:44:07;4.68;;;1.67;;
49592;SDS011;35499;51.482;4.264;2023-05-02T14:46:32;6.20;;;1.63;;
49592;SDS011;35499;51.482;4.264;2023-05-02T14:48:58;5.55;;;1.55;;
49592;SDS011;35499;51.482;4.264;2023-05-02T14:51:23;7.05;;;1.90;;
49592;SDS011;35499;51.482;4.264;2023-05-02T14:53:48;7.27;;;2.00;;
49592;SDS011;35499;51.482;4.264;2023-05-02T14:56:14;3.53;;;1.67;;
49592;SDS011;35499;51.482;4.264;2023-05-02T14:58:41;11.05;;;1.90;;
49592;SDS011;35499;51.482;4.264;2023-05-02T15:01:13;6.18;;;2.17;;
49592;SDS011;35499;51.482;4.264;2023-05-02T15:03:39;5.25;;;2.03;;
49592;SDS011;35499;51.482;4.264;2023-05-02T15:06:05;5.73;;;2.03;;
49592;SDS011;35499;51.482;4.264;2023-05-02T15:08:30;5.00;;;2.30;;
49592;SDS011;35499;51.482;4.264;2023-05-02T15:10:55;5.93;;;2.00;;
49592;SDS011;35499;51.482;4.264;2023-05-02T15:13:21;6.93;;;1.80;;
49592;SDS011;35499;51.482;4.264;2023-05-02T15:15:47;4.70;;;1.50;;
49592;SDS011;35499;51.482;4.264;2023-05-02T15:18:12;4.43;;;2.30;;
49592;SDS011;35499;51.482;4.264;2023-05-02T15:20:37;7.60;;;1.63;;
49592;SDS011;35499;51.482;4.264;2023-05-02T15:23:03;5.67;;;2.00;;
49592;SDS011;35499;51.482;4.264;2023-05-02T15:25:28;8.33;;;2.10;;
49592;SDS011;35499;51.482;4.264;2023-05-02T15:27:54;6.28;;;2.20;;
49592;SDS011;35499;51.482;4.264;2023-05-02T15:30:19;6.40;;;1.88;;
49592;SDS011;35499;51.482;4.264;2023-05-02T15:32:45;5.50;;;2.13;;
49592;SDS011;35499;51.482;4.264;2023-05-02T15:35:10;5.53;;;2.30;;
49592;SDS011;35499;51.482;4.264;2023-05-02T15:37:35;4.80;;;1.67;;
49592;SDS011;35499;51.482;4.264;2023-05-02T15:40:01;4.10;;;1.33;;
49592;SDS011;35499;51.482;4.264;2023-05-02T15:42:27;5.00;;;1.77;;
49592;SDS011;35499;51.482;4.264;2023-05-02T15:44:53;6.07;;;1.85;;
49592;SDS011;35499;51.482;4.264;2023-05-02T15:47:18;6.60;;;1.73;;
49592;SDS011;35499;51.482;4.264;2023-05-02T15:49:43;3.27;;;1.30;;